Time;durP1;ratioP1;P1;durP2;ratioP2;P2;SDS_P1;SDS_P2;PMS_P1;PMS_P2;Temp;Humidity;BMP_temperature;BMP_pressure;BME280_temperature;BME280_humidity;BME280_pressure;Samples;Min_cycle;Max_cycle;Signal;HPM_P1;HPM_P2
2023/10/23 00:44:09;;;;;;;13.95;5.95;;;;;;;;;;4956778;27;71213;-45
2023/10/23 00:46:35;;;;;;;14.55;7.78;;;;;;;;;;4968349;28;20095;-42
2023/10/23 00:49:02;;;;;;;15.93;8.57;;;;;;;;;;4992834;28;20450;-43
2023/10/23 00:51:29;;;;;;;13.80;7.18;;;;;;;;;;4958478;28;20131;-59
2023/10/23 00:53:56;;;;;;;19.00;10.10;;;;;;;;;;4971653;28;20472;-42
2023/10/23 00:57:46;;;;;;;12.85;7.25;;;;;;;;;;5026760;27;20401;-46
2023/10/23 01:00:13;;;;;;;13.30;7.00;;;;;;;;;;5026677;28;20056;-50
2023/10/23 01:02:38;;;;;;;14.60;8.88;;;;;;;;;;5026014;28;20041;-45
2023/10/23 01:05:26;;;;;;;14.18;8.63;;;;;;;;;;4920690;27;20623;-46
2023/10/23 01:07:53;;;;;;;15.38;9.25;;;;;;;;;;4959253;28;20044;-45
2023/10/23 01:10:19;;;;;;;12.30;7.00;;;;;;;;;;5027454;28;20675;-47
2023/10/23 01:12:46;;;;;;;11.52;6.65;;;;;;;;;;5033573;28;20639;-49
2023/10/23 01:15:13;;;;;;;10.65;6.85;;;;;;;;;;5033206;28;20240;-45
2023/10/23 01:17:39;;;;;;;10.32;6.20;;;;;;;;;;5020237;28;20116;-43
2023/10/23 01:20:09;;;;;;;12.98;5.30;;;;;;;;;;5011391;28;20104;-52
2023/10/23 01:22:36;;;;;;;8.23;4.97;;;;;;;;;;5011282;28;20038;-40
2023/10/23 01:25:03;;;;;;;9.52;5.25;;;;;;;;;;5012022;28;20527;-55
2023/10/23 02:11:14;;;;;;;3.05;1.73;;;;;;;;;;5013799;28;20963;-54
2023/10/23 02:13:40;;;;;;;4.10;2.67;;;;;;;;;;4989531;28;20042;-62
2023/10/23 02:59:32;;;;;;;3.15;2.03;;;;;;;;;;4999284;28;20415;-40
2023/10/23 03:01:58;;;;;;;2.17;1.63;;;;;;;;;;4992070;28;20143;-40
2023/10/23 03:18:55;;;;;;;;;;;;;;;;;;4951482;28;19928;-44
2023/10/23 03:22:34;;;;;;;;;;;;;;;;;;4860821;28;20323;-41
2023/10/23 03:25:00;;;;;;;;;;;;;;;;;;4962990;28;19926;-43
2023/10/23 03:27:26;;;;;;;;;;;;;;;;;;4957689;28;19922;-44
2023/10/23 03:29:52;;;;;;;;;;;;;;;;;;4958244;28;19922;-44
2023/10/23 03:34:02;;;;;;;;;;;;;;;;;;5021471;27;19929;-47
2023/10/23 03:36:28;;;;;;;;;;;;;;;;;;5015818;28;20385;-47
2023/10/23 03:38:54;;;;;;;;;;;;;;;;;;5030506;28;19933;-51
2023/10/23 03:41:20;;;;;;;;;;;;;;;;;;5030777;28;19973;-47
2023/10/23 03:43:47;;;;;;;;;;;;;;;;;;5029579;28;19936;-46
2023/10/23 03:48:23;;;;;;;;;;;;;;;;;;5056600;27;19932;-46
2023/10/23 03:50:49;;;;;;;;;;;;;;;;;;5046767;28;19947;-42
2023/10/23 03:53:15;;;;;;;;;;;;;;;;;;5038935;28;19937;-43
2023/10/23 03:55:41;;;;;;;;;;;;;;;;;;5037496;28;19920;-43
2023/10/23 03:58:08;;;;;;;;;;;;;;;;;;5037720;28;19979;-45
2023/10/23 04:00:34;;;;;;;;;;;;;;;;;;5038151;28;19921;-41
2023/10/23 04:03:00;;;;;;;;;;;;;;;;;;5037564;28;20297;-45
2023/10/23 04:05:26;;;;;;;;;;;;;;;;;;5038029;28;20026;-45
2023/10/23 04:07:52;;;;;;;;;;;;;;;;;;5037445;28;19943;-43
2023/10/23 04:10:19;;;;;;;;;;;;;;;;;;5037780;28;20102;-41
2023/10/23 04:12:45;;;;;;;;;;;;;;;;;;5038695;28;19925;-41
2023/10/23 04:15:11;;;;;;;;;;;;;;;;;;5038828;28;19975;-43
2023/10/23 04:17:37;;;;;;;;;;;;;;;;;;5036997;28;20460;-43
2023/10/23 04:20:04;;;;;;;;;;;;;;;;;;5038032;28;19921;-41
2023/10/23 04:22:30;;;;;;;;;;;;;;;;;;5041488;28;19932;-40
2023/10/23 04:24:56;;;;;;;;;;;;;;;;;;5042243;28;20050;-41
2023/10/23 04:27:22;;;;;;;;;;;;;;;;;;5035894;28;20002;-39
2023/10/23 04:29:49;;;;;;;;;;;;;;;;;;5034503;28;19932;-40
2023/10/23 04:32:15;;;;;;;;;;;;;;;;;;5040845;28;20286;-40
2023/10/23 04:34:41;;;;;;;;;;;;;;;;;;5041996;28;19946;-40
2023/10/23 04:41:43;;;;;;;;;;;;;;;;;;5052656;27;20368;-46
2023/10/23 04:44:09;;;;;;;;;;;;;;;;;;5036899;28;20215;-50
2023/10/23 04:46:35;;;;;;;;;;;;;;;;;;5037689;28;19966;-48
2023/10/23 04:49:01;;;;;;;;;;;;;;;;;;5038841;28;20685;-46
2023/10/23 04:51:27;;;;;;;;;;;;;;;;;;5037751;28;19982;-50
2023/10/23 05:01:04;;;;;;;;;;;;;;;;;;4993760;28;19934;-45
2023/10/23 05:03:31;;;;;;;;;;;;;;;;;;4978439;28;20818;-46
2023/10/23 05:06:38;;;;;;;;;;;;;;;;;;4982727;28;19926;-46
2023/10/23 05:09:57;;;;;;;;;;;;;;;;;;5038105;27;19933;-45
2023/10/23 05:12:23;;;;;;;;;;;;;;;;;;5040526;28;20539;-46
2023/10/23 05:14:50;;;;;;;;;;;;;;;;;;5024133;28;19920;-47
2023/10/23 05:17:18;;;;;;;;;;;;;;;;;;5040467;28;19929;-44
2023/10/23 05:19:44;;;;;;;;;;;;;;;;;;5034182;28;19932;-45
2023/10/23 05:22:10;;;;;;;;;;;;;;;;;;5044472;28;19920;-43
2023/10/23 05:24:36;;;;;;;;;;;;;;;;;;5046969;28;19929;-43
2023/10/23 05:27:02;;;;;;;;;;;;;;;;;;5050896;28;20674;-43
2023/10/23 05:29:29;;;;;;;;;;;;;;;;;;5048856;28;19929;-43
2023/10/23 05:31:55;;;;;;;;;;;;;;;;;;5048928;28;20055;-43
2023/10/23 05:34:21;;;;;;;;;;;;;;;;;;5047527;28;19921;-43
2023/10/23 05:36:47;;;;;;;;;;;;;;;;;;5048078;28;19928;-45
2023/10/23 05:39:14;;;;;;;;;;;;;;;;;;5048129;28;20589;-47
2023/10/23 05:41:40;;;;;;;;;;;;;;;;;;5047959;28;19931;-44
2023/10/23 05:44:06;;;;;;;;;;;;;;;;;;5048248;28;19925;-44
2023/10/23 05:46:32;;;;;;;;;;;;;;;;;;5047301;28;19925;-43
2023/10/23 05:48:59;;;;;;;;;;;;;;;;;;5047243;28;19951;-43
2023/10/23 05:51:25;;;;;;;;;;;;;;;;;;5045762;28;19925;-46
2023/10/23 05:53:52;;;;;;;;;;;;;;;;;;5046674;28;20037;-44
2023/10/23 05:56:18;;;;;;;;;;;;;;;;;;5046623;28;19927;-44
2023/10/23 05:58:46;;;;;;;;;;;;;;;;;;5046473;28;20465;-45
2023/10/23 06:01:13;;;;;;;;;;;;;;;;;;5046556;28;20378;-43
2023/10/23 06:03:39;;;;;;;;;;;;;;;;;;5045365;28;19964;-44
2023/10/23 06:06:05;;;;;;;;;;;;;;;;;;5046297;28;21206;-43
2023/10/23 06:08:32;;;;;;;;;;;;;;;;;;5045269;28;20443;-45
2023/10/23 06:10:59;;;;;;;;;;;;;;;;;;5045610;28;20017;-46
2023/10/23 06:13:25;;;;;;;;;;;;;;;;;;5045707;28;19920;-47
2023/10/23 06:15:51;;;;;;;;;;;;;;;;;;5046335;28;20016;-43
2023/10/23 06:18:17;;;;;;;;;;;;;;;;;;5046385;28;19928;-47
2023/10/23 06:20:44;;;;;;;;;;;;;;;;;;5033758;28;19925;-46
2023/10/23 06:23:10;;;;;;;;;;;;;;;;;;5033080;28;19925;-46
2023/10/23 06:25:36;;;;;;;;;;;;;;;;;;5031792;28;21323;-49
2023/10/23 06:28:03;;;;;;;;;;;;;;;;;;5033050;28;19951;-46
2023/10/23 06:30:29;;;;;;;;;;;;;;;;;;5031704;28;19974;-48
2023/10/23 06:32:55;;;;;;;;;;;;;;;;;;5032879;28;19928;-46
2023/10/23 06:35:21;;;;;;;;;;;;;;;;;;5033075;28;20005;-45
2023/10/23 06:37:48;;;;;;;;;;;;;;;;;;5031885;28;20296;-45
2023/10/23 06:40:14;;;;;;;;;;;;;;;;;;5032950;28;20392;-46
2023/10/23 06:42:40;;;;;;;;;;;;;;;;;;5032627;28;20445;-48
2023/10/23 06:45:07;;;;;;;;;;;;;;;;;;5032852;28;20412;-44
2023/10/23 06:47:33;;;;;;;;;;;;;;;;;;5031610;28;19925;-45
2023/10/23 06:50:02;;;;;;;;;;;;;;;;;;5031902;28;20343;-45
2023/10/23 06:52:28;;;;;;;;;;;;;;;;;;5032052;28;20338;-44
2023/10/23 06:54:54;;;;;;;;;;;;;;;;;;5032931;28;20430;-47
2023/10/23 06:57:20;;;;;;;;;;;;;;;;;;5032836;28;20431;-49
2023/10/23 06:59:47;;;;;;;;;;;;;;;;;;5032022;28;20317;-45
2023/10/23 07:02:13;;;;;;;;;;;;;;;;;;5032031;28;20443;-45
2023/10/23 07:04:39;;;;;;;;;;;;;;;;;;5031209;28;20055;-48
2023/10/23 07:07:05;;;;;;;;;;;;;;;;;;5031393;28;20003;-45
2023/10/23 07:09:32;;;;;;;;;;;;;;;;;;5030782;28;19944;-47
2023/10/23 07:11:58;;;;;;;;;;;;;;;;;;5032288;28;19925;-47
2023/10/23 07:14:24;;;;;;;;;;;;;;;;;;5031584;28;19932;-45
2023/10/23 07:16:50;;;;;;;;;;;;;;;;;;5031468;28;20251;-47
2023/10/23 07:19:17;;;;;;;;;;;;;;;;;;5031777;28;19925;-45
2023/10/23 07:21:44;;;;;;;;;;;;;;;;;;5030864;28;20386;-42
2023/10/23 07:24:10;;;;;;;;;;;;;;;;;;5031962;28;20970;-42
2023/10/23 07:26:36;;;;;;;;;;;;;;;;;;5031429;28;20434;-43
2023/10/23 07:29:02;;;;;;;;;;;;;;;;;;5032189;28;19933;-45
2023/10/23 07:31:28;;;;;;;;;;;;;;;;;;5029775;28;19948;-43
2023/10/23 07:33:54;;;;;;;;;;;;;;;;;;5031091;28;20007;-44
2023/10/23 07:36:20;;;;;;;;;;;;;;;;;;5031775;28;19920;-45
2023/10/23 07:38:47;;;;;;;;;;;;;;;;;;5031355;28;20300;-43
2023/10/23 07:41:13;;;;;;;;;;;;;;;;;;5032354;28;19920;-44
2023/10/23 07:43:39;;;;;;;;;;;;;;;;;;5031845;28;19931;-43
2023/10/23 07:46:05;;;;;;;;;;;;;;;;;;5032011;28;19975;-43
2023/10/23 07:48:31;;;;;;;;;;;;;;;;;;5027414;28;20262;-43
2023/10/23 07:50:58;;;;;;;;;;;;;;;;;;5030580;28;19924;-46
2023/10/23 07:53:24;;;;;;;;;;;;;;;;;;5030573;28;19925;-43
2023/10/23 07:55:50;;;;;;;;;;;;;;;;;;5031737;28;21280;-44
2023/10/23 07:58:17;;;;;;;;;;;;;;;;;;5031290;28;19925;-44
2023/10/23 08:00:43;;;;;;;;;;;;;;;;;;5030188;28;20316;-47
2023/10/23 08:03:09;;;;;;;;;;;;;;;;;;5031429;28;20015;-46
2023/10/23 08:05:35;;;;;;;;;;;;;;;;;;5030552;28;20349;-44
2023/10/23 08:08:03;;;;;;;;;;;;;;;;;;5031291;28;19929;-44
2023/10/23 08:10:29;;;;;;;;;;;;;;;;;;5029876;28;19920;-46
2023/10/23 08:12:55;;;;;;;;;;;;;;;;;;5030523;28;19925;-44
2023/10/23 08:15:21;;;;;;;;;;;;;;;;;;5030547;28;20093;-44
2023/10/23 08:17:50;;;;;;;;;;;;;;;;;;5030308;28;20663;-45
2023/10/23 08:20:17;;;;;;;;;;;;;;;;;;5029527;28;20390;-47
2023/10/23 08:22:43;;;;;;;;;;;;;;;;;;5030651;28;19924;-44
2023/10/23 08:25:09;;;;;;;;;;;;;;;;;;5031162;28;20477;-46
2023/10/23 08:27:35;;;;;;;;;;;;;;;;;;5030121;28;19967;-47
2023/10/23 08:30:02;;;;;;;;;;;;;;;;;;5030117;28;20010;-46
2023/10/23 08:32:29;;;;;;;;;;;;;;;;;;5029839;28;19955;-44
2023/10/23 08:34:55;;;;;;;;;;;;;;;;;;5031146;28;20057;-46
2023/10/23 08:37:21;;;;;;;;;;;;;;;;;;5030679;28;19921;-45
2023/10/23 08:39:48;;;;;;;;;;;;;;;;;;5030004;28;19925;-44
2023/10/23 08:42:14;;;;;;;;;;;;;;;;;;5030594;28;19925;-43
2023/10/23 08:44:40;;;;;;;;;;;;;;;;;;5029969;28;19920;-44
2023/10/23 08:47:06;;;;;;;;;;;;;;;;;;5030519;28;19971;-44
2023/10/23 08:49:33;;;;;;;;;;;;;;;;;;5028854;28;19939;-43
2023/10/23 08:51:59;;;;;;;;;;;;;;;;;;5030825;28;19970;-43
2023/10/23 08:54:25;;;;;;;;;;;;;;;;;;5029720;28;20399;-43
2023/10/23 08:56:51;;;;;;;;;;;;;;;;;;5030644;28;19925;-44
2023/10/23 08:59:18;;;;;;;;;;;;;;;;;;5029626;28;20074;-46
2023/10/23 09:01:44;;;;;;;;;;;;;;;;;;5029577;28;19933;-44
2023/10/23 09:04:10;;;;;;;;;;;;;;;;;;5029634;28;20350;-43
2023/10/23 09:06:36;;;;;;;;;;;;;;;;;;5029735;28;20054;-43
2023/10/23 09:09:03;;;;;;;;;;;;;;;;;;5030366;28;20336;-45
2023/10/23 09:11:29;;;;;;;;;;;;;;;;;;5028376;28;19980;-45
2023/10/23 09:13:55;;;;;;;;;;;;;;;;;;5029742;28;19925;-44
2023/10/23 09:16:22;;;;;;;;;;;;;;;;;;5028114;28;20732;-44
2023/10/23 09:18:51;;;;;;;;;;;;;;;;;;5030338;28;19920;-44
2023/10/23 09:21:17;;;;;;;;;;;;;;;;;;5044937;28;20388;-44
2023/10/23 09:23:43;;;;;;;;;;;;;;;;;;5029649;28;19925;-43
2023/10/23 09:26:10;;;;;;;;;;;;;;;;;;5029927;28;19920;-43
2023/10/23 09:28:36;;;;;;;;;;;;;;;;;;5029543;28;19929;-43
2023/10/23 09:31:02;;;;;;;;;;;;;;;;;;5029161;28;20384;-42
2023/10/23 09:33:31;;;;;;;;;;;;;;;;;;5029524;28;19927;-46
2023/10/23 09:35:57;;;;;;;;;;;;;;;;;;5030050;28;19928;-43
2023/10/23 09:38:24;;;;;;;;;;;;;;;;;;5029306;28;20058;-42
2023/10/23 09:40:50;;;;;;;;;;;;;;;;;;5029842;28;20406;-43
2023/10/23 09:43:16;;;;;;;;;;;;;;;;;;5030201;28;19984;-44
2023/10/23 09:45:42;;;;;;;;;;;;;;;;;;5029115;28;20786;-45
2023/10/23 09:48:08;;;;;;;;;;;;;;;;;;5029740;28;20026;-42
2023/10/23 09:50:35;;;;;;;;;;;;;;;;;;5028425;28;19925;-44
2023/10/23 09:53:01;;;;;;;;;;;;;;;;;;5029566;28;19932;-44
2023/10/23 09:55:28;;;;;;;;;;;;;;;;;;5030925;28;19960;-44
2023/10/23 09:57:54;;;;;;;;;;;;;;;;;;5033507;28;20011;-44
2023/10/23 10:00:20;;;;;;;;;;;;;;;;;;5032717;28;20457;-45
2023/10/23 10:02:46;;;;;;;;;;;;;;;;;;5032391;28;19949;-44
2023/10/23 10:05:13;;;;;;;;;;;;;;;;;;5033202;28;19925;-45
2023/10/23 10:07:39;;;;;;;;;;;;;;;;;;5032820;28;20545;-44
2023/10/23 10:10:05;;;;;;;;;;;;;;;;;;5032752;28;20374;-46
2023/10/23 10:12:34;;;;;;;;;;;;;;;;;;5033026;28;20591;-46
2023/10/23 10:15:00;;;;;;;;;;;;;;;;;;5033736;28;19921;-46
2023/10/23 10:17:27;;;;;;;;;;;;;;;;;;5030810;28;19925;-45
2023/10/23 10:19:53;;;;;;;;;;;;;;;;;;5033447;28;19929;-46
2023/10/23 10:22:20;;;;;;;;;;;;;;;;;;5033504;28;20389;-44
2023/10/23 10:24:46;;;;;;;;;;;;;;;;;;5034347;28;19921;-45
2023/10/23 10:27:13;;;;;;;;;;;;;;;;;;5034834;28;19928;-43
2023/10/23 10:29:40;;;;;;;;;;;;;;;;;;5033193;28;19998;-45
2023/10/23 10:32:06;;;;;;;;;;;;;;;;;;5038407;28;20031;-47
2023/10/23 10:34:33;;;;;;;;;;;;;;;;;;5036438;28;19938;-45
2023/10/23 10:36:59;;;;;;;;;;;;;;;;;;5032716;28;19996;-44
2023/10/23 10:39:25;;;;;;;;;;;;;;;;;;5031866;28;19920;-44
2023/10/23 10:41:51;;;;;;;;;;;;;;;;;;5032828;28;19970;-44
2023/10/23 10:44:18;;;;;;;;;;;;;;;;;;5032255;28;19925;-45
2023/10/23 10:46:45;;;;;;;;;;;;;;;;;;5032507;28;19921;-45
2023/10/23 10:49:11;;;;;;;;;;;;;;;;;;5031813;28;19929;-47
2023/10/23 10:51:37;;;;;;;;;;;;;;;;;;5031878;28;20248;-45
2023/10/23 10:54:04;;;;;;;;;;;;;;;;;;5032486;28;19924;-47
2023/10/23 10:56:31;;;;;;;;;;;;;;;;;;5031920;28;20242;-44
2023/10/23 10:58:57;;;;;;;;;;;;;;;;;;5033115;28;20381;-47
2023/10/23 11:01:24;;;;;;;;;;;;;;;;;;5031233;28;19921;-47
2023/10/23 11:03:51;;;;;;;;;;;;;;;;;;5031634;28;20290;-46
2023/10/23 11:06:17;;;;;;;;;;;;;;;;;;5031910;28;20317;-45
2023/10/23 11:08:43;;;;;;;;;;;;;;;;;;5030431;28;19939;-48
2023/10/23 11:11:10;;;;;;;;;;;;;;;;;;5031229;28;19921;-45
2023/10/23 11:13:36;;;;;;;;;;;;;;;;;;5031953;28;20390;-45
2023/10/23 11:16:04;;;;;;;;;;;;;;;;;;5032044;28;19940;-45
2023/10/23 11:18:30;;;;;;;;;;;;;;;;;;5031168;28;20364;-45
2023/10/23 11:20:57;;;;;;;;;;;;;;;;;;5031604;28;19970;-43
2023/10/23 11:23:23;;;;;;;;;;;;;;;;;;5031086;28;19978;-45
2023/10/23 11:25:50;;;;;;;;;;;;;;;;;;5032132;28;20404;-45
2023/10/23 11:28:17;;;;;;;;;;;;;;;;;;5032093;28;20875;-45
2023/10/23 11:30:43;;;;;;;;;;;;;;;;;;5030872;28;20357;-45
2023/10/23 11:33:09;;;;;;;;;;;;;;;;;;5031167;28;20457;-45
2023/10/23 11:35:35;;;;;;;;;;;;;;;;;;5030917;28;19925;-46
2023/10/23 11:38:03;;;;;;;;;;;;;;;;;;5032047;28;20289;-45
2023/10/23 11:40:29;;;;;;;;;;;;;;;;;;5030376;28;19987;-45
2023/10/23 11:42:56;;;;;;;;;;;;;;;;;;5031686;28;19974;-45
2023/10/23 11:45:22;;;;;;;;;;;;;;;;;;5031889;28;20004;-43
2023/10/23 11:47:48;;;;;;;;;;;;;;;;;;5030668;28;19924;-43
2023/10/23 11:50:14;;;;;;;;;;;;;;;;;;5030418;28;19921;-45
2023/10/23 11:52:44;;;;;;;;;;;;;;;;;;5030694;28;19925;-42
2023/10/23 11:55:10;;;;;;;;;;;;;;;;;;5031607;28;20365;-43
2023/10/23 11:57:36;;;;;;;;;;;;;;;;;;5030933;28;20043;-43
2023/10/23 12:00:07;;;;;;;;;;;;;;;;;;5030628;28;19921;-44
2023/10/23 12:02:33;;;;;;;;;;;;;;;;;;5030292;28;19920;-43
2023/10/23 12:04:59;;;;;;;;;;;;;;;;;;5031100;28;19920;-44
2023/10/23 12:07:25;;;;;;;;;;;;;;;;;;5030397;28;20349;-43
2023/10/23 12:09:52;;;;;;;;;;;;;;;;;;5030452;28;20335;-42
2023/10/23 12:12:18;;;;;;;;;;;;;;;;;;5031703;28;19963;-42
2023/10/23 12:14:44;;;;;;;;;;;;;;;;;;5030456;28;19925;-43
2023/10/23 12:17:10;;;;;;;;;;;;;;;;;;5030416;28;20266;-43
2023/10/23 12:19:36;;;;;;;;;;;;;;;;;;5028832;28;19925;-43
2023/10/23 12:22:04;;;;;;;;;;;;;;;;;;5031019;28;19929;-47
2023/10/23 12:24:31;;;;;;;;;;;;;;;;;;5029502;28;19924;-43
2023/10/23 12:26:57;;;;;;;;;;;;;;;;;;5031318;28;19932;-44
2023/10/23 12:29:23;;;;;;;;;;;;;;;;;;5029200;28;19950;-45
2023/10/23 12:31:49;;;;;;;;;;;;;;;;;;5031069;28;20395;-45
2023/10/23 12:34:15;;;;;;;;;;;;;;;;;;5030645;28;19964;-45
2023/10/23 12:36:41;;;;;;;;;;;;;;;;;;5030706;28;19929;-45
2023/10/23 12:39:08;;;;;;;;;;;;;;;;;;5030306;28;20305;-45
2023/10/23 12:41:34;;;;;;;;;;;;;;;;;;5030091;28;19979;-46
2023/10/23 12:44:00;;;;;;;;;;;;;;;;;;5029945;28;19925;-46
2023/10/23 12:46:26;;;;;;;;;;;;;;;;;;5029709;28;19932;-45
2023/10/23 12:48:52;;;;;;;;;;;;;;;;;;5029183;28;20389;-49
2023/10/23 12:51:20;;;;;;;;;;;;;;;;;;5030110;28;19925;-45
2023/10/23 12:53:46;;;;;;;;;;;;;;;;;;5029161;28;20480;-46
2023/10/23 12:56:12;;;;;;;;;;;;;;;;;;5030230;28;20252;-45
2023/10/23 12:58:41;;;;;;;;;;;;;;;;;;5029933;28;19927;-46
2023/10/23 13:01:07;;;;;;;;;;;;;;;;;;5029699;28;19925;-51
2023/10/23 13:03:33;;;;;;;;;;;;;;;;;;5029165;28;19921;-49
2023/10/23 13:05:59;;;;;;;;;;;;;;;;;;5028411;28;20553;-47
2023/10/23 13:08:25;;;;;;;;;;;;;;;;;;5028636;28;20036;-47
2023/10/23 13:10:52;;;;;;;;;;;;;;;;;;5030560;28;19943;-46
2023/10/23 13:13:18;;;;;;;;;;;;;;;;;;5030077;28;19932;-47
2023/10/23 13:15:44;;;;;;;;;;;;;;;;;;5029390;28;20644;-46
2023/10/23 13:18:10;;;;;;;;;;;;;;;;;;5029913;28;19924;-47
2023/10/23 13:20:36;;;;;;;;;;;;;;;;;;5029133;28;19930;-44
2023/10/23 13:23:03;;;;;;;;;;;;;;;;;;5029991;28;21735;-43
2023/10/23 13:25:29;;;;;;;;;;;;;;;;;;5029304;28;20364;-48
2023/10/23 13:27:55;;;;;;;;;;;;;;;;;;5030614;28;19928;-44
2023/10/23 13:30:22;;;;;;;;;;;;;;;;;;5032112;28;19932;-44
2023/10/23 13:32:48;;;;;;;;;;;;;;;;;;5034059;28;19948;-45
2023/10/23 13:35:15;;;;;;;;;;;;;;;;;;5034853;28;19920;-45
2023/10/23 13:37:41;;;;;;;;;;;;;;;;;;5033145;28;20447;-45
2023/10/23 13:40:08;;;;;;;;;;;;;;;;;;5033231;28;19929;-43
2023/10/23 13:42:34;;;;;;;;;;;;;;;;;;5031808;28;20570;-43
2023/10/23 13:45:00;;;;;;;;;;;;;;;;;;5034050;28;19921;-43
2023/10/23 13:47:26;;;;;;;;;;;;;;;;;;5033304;28;20258;-48
2023/10/23 13:49:55;;;;;;;;;;;;;;;;;;5033527;28;19944;-46
2023/10/23 13:52:22;;;;;;;;;;;;;;;;;;5032804;28;19925;-46
2023/10/23 13:54:48;;;;;;;;;;;;;;;;;;5033861;28;20360;-46
2023/10/23 13:57:14;;;;;;;;;;;;;;;;;;5034642;28;19925;-46
2023/10/23 13:59:40;;;;;;;;;;;;;;;;;;5032664;28;19929;-46
2023/10/23 14:02:07;;;;;;;;;;;;;;;;;;5032832;28;20286;-49
2023/10/23 14:04:33;;;;;;;;;;;;;;;;;;5032729;28;19925;-48
2023/10/23 14:06:59;;;;;;;;;;;;;;;;;;5033794;28;20664;-46
2023/10/23 14:09:25;;;;;;;;;;;;;;;;;;5032098;28;19928;-47
2023/10/23 14:11:51;;;;;;;;;;;;;;;;;;5034634;28;19993;-46
2023/10/23 14:14:18;;;;;;;;;;;;;;;;;;5033687;28;19925;-46
2023/10/23 14:16:44;;;;;;;;;;;;;;;;;;5033222;28;19924;-46
2023/10/23 14:19:11;;;;;;;;;;;;;;;;;;5032227;28;19960;-50
2023/10/23 14:21:37;;;;;;;;;;;;;;;;;;5032014;28;20327;-46
2023/10/23 14:24:04;;;;;;;;;;;;;;;;;;5032949;28;19925;-48
2023/10/23 14:26:30;;;;;;;;;;;;;;;;;;5032082;28;19932;-48
2023/10/23 14:28:56;;;;;;;;;;;;;;;;;;5032505;28;20616;-48
2023/10/23 14:31:22;;;;;;;;;;;;;;;;;;5033418;28;19932;-47
2023/10/23 14:33:49;;;;;;;;;;;;;;;;;;5033703;28;19925;-49
2023/10/23 14:36:15;;;;;;;;;;;;;;;;;;5032479;28;19925;-47
2023/10/23 14:38:41;;;;;;;;;;;;;;;;;;5031657;28;19935;-47
2023/10/23 14:41:07;;;;;;;;;;;;;;;;;;5032140;28;19925;-46
2023/10/23 14:43:35;;;;;;;;;;;;;;;;;;5032675;28;19928;-47
2023/10/23 14:46:01;;;;;;;;;;;;;;;;;;5033036;28;20317;-46
2023/10/23 14:48:28;;;;;;;;;;;;;;;;;;5032019;28;19940;-48
2023/10/23 14:50:54;;;;;;;;;;;;;;;;;;5032055;28;19928;-48
2023/10/23 14:53:20;;;;;;;;;;;;;;;;;;5032632;28;19925;-46
2023/10/23 14:55:46;;;;;;;;;;;;;;;;;;5032280;28;19995;-47
2023/10/23 14:58:13;;;;;;;;;;;;;;;;;;5032355;28;19928;-48
2023/10/23 15:00:40;;;;;;;;;;;;;;;;;;5030640;28;20449;-47
2023/10/23 15:03:06;;;;;;;;;;;;;;;;;;5031713;28;20393;-47
2023/10/23 15:05:32;;;;;;;;;;;;;;;;;;5030799;28;19925;-47
2023/10/23 15:08:00;;;;;;;;;;;;;;;;;;5048403;28;20012;-48
2023/10/23 15:10:26;;;;;;;;;;;;;;;;;;5032319;28;19924;-48
2023/10/23 15:12:52;;;;;;;;;;;;;;;;;;5033162;28;20011;-46
2023/10/23 15:15:22;;;;;;;;;;;;;;;;;;5032484;28;19924;-47
2023/10/23 15:17:48;;;;;;;;;;;;;;;;;;5031719;28;20179;-48
2023/10/23 15:20:14;;;;;;;;;;;;;;;;;;5031355;28;19921;-47
2023/10/23 15:22:41;;;;;;;;;;;;;;;;;;5031428;28;19925;-47
2023/10/23 15:25:07;;;;;;;;;;;;;;;;;;5031989;28;19961;-49
2023/10/23 15:27:33;;;;;;;;;;;;;;;;;;5031680;28;19931;-46
2023/10/23 15:29:59;;;;;;;;;;;;;;;;;;5031414;28;19936;-47
2023/10/23 15:32:26;;;;;;;;;;;;;;;;;;5031010;28;20382;-46
2023/10/23 15:34:52;;;;;;;;;;;;;;;;;;5020796;28;20075;-47
2023/10/23 15:37:19;;;;;;;;;;;;;;;;;;5023648;28;19972;-48
2023/10/23 15:39:46;;;;;;;;;;;;;;;;;;5030584;28;20313;-47
2023/10/23 15:42:12;;;;;;;;;;;;;;;;;;5024566;28;19995;-47
2023/10/23 15:44:38;;;;;;;;;;;;;;;;;;5030243;28;19924;-46
2023/10/23 15:47:04;;;;;;;;;;;;;;;;;;5023792;28;19920;-46
2023/10/23 15:49:30;;;;;;;;;;;;;;;;;;5021527;28;20308;-51
2023/10/23 15:51:57;;;;;;;;;;;;;;;;;;5023389;28;19932;-48
2023/10/23 15:54:23;;;;;;;;;;;;;;;;;;5030140;28;20384;-46
2023/10/23 15:56:49;;;;;;;;;;;;;;;;;;5031243;28;19921;-47
2023/10/23 15:59:15;;;;;;;;;;;;;;;;;;5031351;28;20304;-47
2023/10/23 16:01:42;;;;;;;;;;;;;;;;;;5030375;28;21461;-53
2023/10/23 16:04:08;;;;;;;;;;;;;;;;;;5031584;28;19921;-47
2023/10/23 16:06:36;;;;;;;;;;;;;;;;;;5023065;28;20006;-47
2023/10/23 16:09:02;;;;;;;;;;;;;;;;;;5062965;28;19932;-50
2023/10/23 16:11:28;;;;;;;;;;;;;;;;;;5013877;28;19925;-46
2023/10/23 16:13:54;;;;;;;;;;;;;;;;;;5031500;28;19925;-47
2023/10/23 16:16:21;;;;;;;;;;;;;;;;;;5030717;28;19942;-47
2023/10/23 16:18:47;;;;;;;;;;;;;;;;;;5030473;28;19921;-49
2023/10/23 16:21:14;;;;;;;;;;;;;;;;;;5031286;28;20294;-50
2023/10/23 16:23:40;;;;;;;;;;;;;;;;;;5030242;28;20071;-49
2023/10/23 16:26:06;;;;;;;;;;;;;;;;;;5030941;28;20377;-47
2023/10/23 16:28:32;;;;;;;;;;;;;;;;;;5030131;28;19932;-55
2023/10/23 16:30:58;;;;;;;;;;;;;;;;;;5031232;28;19968;-49
2023/10/23 16:33:24;;;;;;;;;;;;;;;;;;5030330;28;20565;-48
2023/10/23 16:35:51;;;;;;;;;;;;;;;;;;5030825;28;19920;-49
2023/10/23 16:38:18;;;;;;;;;;;;;;;;;;5030875;28;20723;-52
2023/10/23 16:40:44;;;;;;;;;;;;;;;;;;5029830;28;19968;-52
2023/10/23 16:43:17;;;;;;;;;;;;;;;;;;5031600;28;19991;-52
2023/10/23 16:45:43;;;;;;;;;;;;;;;;;;5029679;28;20224;-53
2023/10/23 16:48:09;;;;;;;;;;;;;;;;;;5031310;28;20421;-49
2023/10/23 16:50:36;;;;;;;;;;;;;;;;;;5029499;28;19925;-49
2023/10/23 16:53:03;;;;;;;;;;;;;;;;;;5030678;28;20027;-53
2023/10/23 16:55:29;;;;;;;;;;;;;;;;;;5031309;28;19931;-47
2023/10/23 16:57:56;;;;;;;;;;;;;;;;;;5031492;28;19920;-52
2023/10/23 17:00:22;;;;;;;;;;;;;;;;;;5030470;28;20405;-52
2023/10/23 17:02:49;;;;;;;;;;;;;;;;;;5030361;28;19938;-49
2023/10/23 17:05:15;;;;;;;;;;;;;;;;;;5030560;28;19966;-49
2023/10/23 17:07:41;;;;;;;;;;;;;;;;;;5029062;28;20346;-52
2023/10/23 17:10:08;;;;;;;;;;;;;;;;;;5029803;28;20015;-49
2023/10/23 17:12:34;;;;;;;;;;;;;;;;;;5029034;28;19925;-47
2023/10/23 17:15:00;;;;;;;;;;;;;;;;;;5030688;28;20132;-48
2023/10/23 17:17:26;;;;;;;;;;;;;;;;;;5029972;28;20301;-49
2023/10/23 17:19:52;;;;;;;;;;;;;;;;;;5029739;28;19925;-49
2023/10/23 17:22:19;;;;;;;;;;;;;;;;;;5030404;28;20383;-47
2023/10/23 17:24:45;;;;;;;;;;;;;;;;;;5029383;28;20033;-50
2023/10/23 17:27:12;;;;;;;;;;;;;;;;;;5030155;28;19975;-49
2023/10/23 17:29:39;;;;;;;;;;;;;;;;;;5028629;28;19978;-49
2023/10/23 17:32:08;;;;;;;;;;;;;;;;;;5031058;28;19995;-50
2023/10/23 17:34:34;;;;;;;;;;;;;;;;;;5028759;28;19927;-47
2023/10/23 17:37:00;;;;;;;;;;;;;;;;;;5030353;28;19928;-49
2023/10/23 17:39:26;;;;;;;;;;;;;;;;;;5029498;28;20294;-49
2023/10/23 17:41:53;;;;;;;;;;;;;;;;;;5031073;28;19927;-49
2023/10/23 17:44:19;;;;;;;;;;;;;;;;;;5030873;28;19921;-50
2023/10/23 17:46:45;;;;;;;;;;;;;;;;;;5030006;28;19971;-49
2023/10/23 17:49:11;;;;;;;;;;;;;;;;;;5045272;28;19929;-49
2023/10/23 17:51:38;;;;;;;;;;;;;;;;;;5029958;28;19927;-47
2023/10/23 17:54:05;;;;;;;;;;;;;;;;;;5030004;28;19954;-49
2023/10/23 17:56:32;;;;;;;;;;;;;;;;;;5029450;28;20334;-48
2023/10/23 17:58:58;;;;;;;;;;;;;;;;;;5029538;28;19924;-49
2023/10/23 18:01:24;;;;;;;;;;;;;;;;;;5029552;28;19935;-45
2023/10/23 18:03:51;;;;;;;;;;;;;;;;;;5030073;28;19925;-49
2023/10/23 18:06:17;;;;;;;;;;;;;;;;;;5029440;28;19924;-50
2023/10/23 18:08:43;;;;;;;;;;;;;;;;;;5028528;28;20588;-48
2023/10/23 18:11:10;;;;;;;;;;;;;;;;;;5030831;28;20568;-46
2023/10/23 18:13:36;;;;;;;;;;;;;;;;;;5028472;28;19921;-48
2023/10/23 18:16:02;;;;;;;;;;;;;;;;;;5030995;28;19999;-48
2023/10/23 18:18:29;;;;;;;;;;;;;;;;;;5032558;28;19924;-54
2023/10/23 18:20:55;;;;;;;;;;;;;;;;;;5033851;28;19937;-53
2023/10/23 18:23:21;;;;;;;;;;;;;;;;;;5031757;28;19925;-52
2023/10/23 18:25:47;;;;;;;;;;;;;;;;;;5033138;28;20427;-48
2023/10/23 18:28:13;;;;;;;;;;;;;;;;;;5033222;28;20298;-50
2023/10/23 18:30:40;;;;;;;;;;;;;;;;;;5031775;28;19956;-47
2023/10/23 18:33:06;;;;;;;;;;;;;;;;;;5032940;28;19925;-49
2023/10/23 18:35:32;;;;;;;;;;;;;;;;;;5032582;28;19980;-49
2023/10/23 18:37:58;;;;;;;;;;;;;;;;;;5032147;28;19921;-47
2023/10/23 18:40:24;;;;;;;;;;;;;;;;;;5031665;28;19931;-48
2023/10/23 18:42:51;;;;;;;;;;;;;;;;;;5032746;28;19924;-46
2023/10/23 18:45:17;;;;;;;;;;;;;;;;;;5033278;28;20096;-47
2023/10/23 18:47:43;;;;;;;;;;;;;;;;;;5032340;28;20332;-47
2023/10/23 18:50:10;;;;;;;;;;;;;;;;;;5032085;28;19933;-48
2023/10/23 18:52:36;;;;;;;;;;;;;;;;;;5031606;28;20775;-47
2023/10/23 18:55:02;;;;;;;;;;;;;;;;;;5032757;28;19955;-47
2023/10/23 18:57:29;;;;;;;;;;;;;;;;;;5032052;28;19931;-47
2023/10/23 18:59:57;;;;;;;;;;;;;;;;;;5032535;28;20063;-47
2023/10/23 19:02:23;;;;;;;;;;;;;;;;;;5031970;28;20004;-47
2023/10/23 19:04:49;;;;;;;;;;;;;;;;;;5032258;28;19928;-47
2023/10/23 19:07:16;;;;;;;;;;;;;;;;;;5031680;28;20691;-49
2023/10/23 19:09:42;;;;;;;;;;;;;;;;;;5030736;28;19940;-47
2023/10/23 19:12:08;;;;;;;;;;;;;;;;;;5031855;28;19933;-47
2023/10/23 19:14:34;;;;;;;;;;;;;;;;;;5031470;28;19932;-46
2023/10/23 19:17:03;;;;;;;;;;;;;;;;;;5032396;28;19928;-47